createdAt,value
2022-12-23T00:02:39.277Z,100223.00
2022-12-23T00:05:42.190Z,100227.31
2022-12-23T00:08:46.820Z,100225.22
2022-12-23T00:12:08.800Z,100222.06
2022-12-23T00:15:13.120Z,100226.41
2022-12-23T00:18:16.194Z,100232.41
2022-12-23T00:21:18.729Z,100233.72
2022-12-23T00:24:24.400Z,100242.03
2022-12-23T00:27:26.767Z,100238.88
2022-12-23T00:30:30.051Z,100238.13
2022-12-23T00:33:37.890Z,100247.16
2022-12-23T00:36:40.930Z,100238.50
2022-12-23T00:40:06.534Z,100239.03
2022-12-23T00:43:09.920Z,100228.75
2022-12-23T00:46:12.326Z,100221.88
2022-12-23T00:49:36.322Z,100214.78
2022-12-23T00:52:38.721Z,100221.81
2022-12-23T00:55:41.225Z,100218.50
2022-12-23T00:58:43.507Z,100222.12
2022-12-23T01:02:05.550Z,100212.72
2022-12-23T01:05:29.707Z,100230.37
2022-12-23T01:08:32.650Z,100222.75
2022-12-23T01:11:34.888Z,100218.50
2022-12-23T01:14:37.557Z,100209.63
2022-12-23T01:17:39.792Z,100205.31
2022-12-23T01:20:42.454Z,100215.03
2022-12-23T01:23:44.838Z,100208.25
2022-12-23T01:26:47.408Z,100202.91
2022-12-23T01:29:49.733Z,100206.25
2022-12-23T01:32:52.315Z,100200.13
2022-12-23T01:36:02.937Z,100195.81
2022-12-23T01:39:05.583Z,100194.91
2022-12-23T01:42:38.143Z,100189.97
2022-12-23T01:45:40.720Z,100187.03
2022-12-23T01:48:50.863Z,100179.25
2022-12-23T01:51:53.527Z,100176.09
2022-12-23T01:54:56.560Z,100175.06
2022-12-23T01:58:11.230Z,100169.16
2022-12-23T02:01:32.780Z,100177.34
2022-12-23T02:04:35.891Z,100174.78
2022-12-23T02:07:56.857Z,100168.69
2022-12-23T02:11:21.995Z,100170.00
2022-12-23T02:15:21.020Z,100159.53
2022-12-23T02:18:53.745Z,100169.16
2022-12-23T02:22:08.461Z,100152.87
2022-12-23T02:25:41.494Z,100153.09
2022-12-23T02:28:57.870Z,100145.94
2022-12-23T02:32:03.279Z,100153.63
2022-12-23T02:35:46.784Z,100150.53
2022-12-23T02:38:56.588Z,100157.75
2022-12-23T02:42:22.305Z,100156.53
2022-12-23T02:45:28.149Z,100151.94
2022-12-23T02:48:33.285Z,100157.19
2022-12-23T02:51:42.822Z,100163.03
2022-12-23T02:54:50.253Z,100163.63
2022-12-23T02:57:55.489Z,100159.25
2022-12-23T03:00:59.883Z,100167.88
2022-12-23T03:04:02.823Z,100161.78
2022-12-23T03:07:08.138Z,100155.78
2022-12-23T03:10:18.418Z,100165.41
2022-12-23T03:13:35.888Z,100175.87
2022-12-23T03:17:00.369Z,100168.94
2022-12-23T03:20:20.576Z,100160.25
2022-12-23T03:23:28.794Z,100156.09
2022-12-23T03:26:40.207Z,100165.87
2022-12-23T03:29:55.431Z,100157.88
2022-12-23T03:33:19.360Z,100152.00
2022-12-23T03:36:26.678Z,100153.78
2022-12-23T03:40:07.027Z,100147.91
2022-12-23T03:43:19.251Z,100149.13
2022-12-23T03:46:40.124Z,100162.16
2022-12-23T03:49:51.263Z,100162.28
2022-12-23T03:53:01.222Z,100146.72
2022-12-23T03:56:14.118Z,100144.88
2022-12-23T03:59:21.913Z,100150.41
2022-12-23T04:02:46.621Z,100152.97
2022-12-23T04:05:57.425Z,100147.50
2022-12-23T04:09:01.392Z,100143.41
2022-12-23T04:12:04.408Z,100136.41
2022-12-23T04:15:12.483Z,100135.47
2022-12-23T04:18:16.470Z,100132.78
2022-12-23T04:21:18.667Z,100131.16
2022-12-23T04:24:21.242Z,100122.47
2022-12-23T04:27:23.452Z,100122.09
2022-12-23T04:30:31.583Z,100128.41
2022-12-23T04:33:36.495Z,100123.31
2022-12-23T04:36:38.965Z,100125.06
2022-12-23T04:39:41.157Z,100127.91
2022-12-23T04:42:43.707Z,100135.53
2022-12-23T04:45:51.592Z,100145.03
2022-12-23T04:48:54.146Z,100146.16
2022-12-23T04:51:56.348Z,100135.84
2022-12-23T04:54:58.835Z,100143.69
2022-12-23T04:58:01.075Z,100139.88
2022-12-23T05:01:09.444Z,100144.69
2022-12-23T05:04:12.005Z,100150.91
2022-12-23T05:07:14.657Z,100141.50
2022-12-23T05:10:16.973Z,100133.66
2022-12-23T05:13:19.597Z,100131.09
2022-12-23T05:16:21.829Z,100137.47
2022-12-23T05:19:24.356Z,100139.09
2022-12-23T05:22:26.584Z,100141.03
2022-12-23T05:25:29.093Z,100147.12
2022-12-23T05:28:31.652Z,100145.50
2022-12-23T05:31:34.336Z,100132.50
2022-12-23T05:34:36.799Z,100145.66
2022-12-23T05:37:39.395Z,100136.59
2022-12-23T05:40:41.675Z,100130.50
2022-12-23T05:43:44.248Z,100127.75
2022-12-23T05:46:46.459Z,100125.41
2022-12-23T05:49:48.971Z,100138.28
2022-12-23T05:52:51.235Z,100140.12
2022-12-23T05:55:53.714Z,100167.78
2022-12-23T05:58:55.844Z,100165.31
2022-12-23T06:01:58.483Z,100169.25
2022-12-23T06:05:01.179Z,100166.78
2022-12-23T06:08:03.800Z,100161.94
2022-12-23T06:11:06.450Z,100162.03
2022-12-23T06:14:08.614Z,100152.69
2022-12-23T06:17:11.133Z,100147.94
2022-12-23T06:20:20.026Z,100156.00
2022-12-23T06:23:23.687Z,100155.09
2022-12-23T06:26:26.457Z,100148.94
2022-12-23T06:29:29.319Z,100147.38
2022-12-23T06:32:37.761Z,100162.22
2022-12-23T06:35:41.094Z,100151.69
2022-12-23T06:38:43.293Z,100153.31
2022-12-23T06:41:45.961Z,100147.88
2022-12-23T06:44:48.125Z,100136.78
2022-12-23T06:47:50.575Z,100152.19
2022-12-23T06:50:52.761Z,100162.66
2022-12-23T06:53:55.445Z,100168.16
2022-12-23T06:56:57.665Z,100167.97
2022-12-23T07:00:00.164Z,100172.63
2022-12-23T07:03:02.521Z,100183.59
2022-12-23T07:06:06.363Z,100183.13
2022-12-23T07:09:08.679Z,100204.56
2022-12-23T07:12:11.366Z,100210.97
2022-12-23T07:15:13.729Z,100208.38
2022-12-23T07:18:16.249Z,100216.78
2022-12-23T07:21:28.270Z,100225.50
2022-12-23T07:24:31.899Z,100215.06
2022-12-23T07:27:34.080Z,100216.44
2022-12-23T07:30:36.977Z,100195.25
2022-12-23T07:33:39.232Z,100201.31
2022-12-23T07:36:41.734Z,100175.38
2022-12-23T07:39:43.927Z,100176.34
2022-12-23T07:42:49.669Z,100182.38
2022-12-23T07:45:59.145Z,100185.44
2022-12-23T07:49:02.864Z,100170.78
2022-12-23T07:52:05.111Z,100179.75
2022-12-23T07:55:08.060Z,100173.13
2022-12-23T07:58:10.252Z,100177.75
2022-12-23T08:01:12.841Z,100184.25
2022-12-23T08:04:17.850Z,100182.87
2022-12-23T08:07:20.071Z,100169.72
2022-12-23T08:10:22.796Z,100168.44
2022-12-23T08:13:25.089Z,100170.78
2022-12-23T08:16:27.754Z,100165.06
2022-12-23T08:19:30.148Z,100170.16
2022-12-23T08:22:32.758Z,100165.72
2022-12-23T08:25:34.966Z,100178.59
2022-12-23T08:28:39.230Z,100168.91
2022-12-23T08:31:41.458Z,100157.38
2022-12-23T08:34:44.689Z,100159.16
2022-12-23T08:37:46.956Z,100161.06
2022-12-23T08:40:49.448Z,100158.91
2022-12-23T08:43:51.770Z,100172.28
2022-12-23T08:46:55.513Z,100169.72
2022-12-23T08:49:57.675Z,100169.72
2022-12-23T08:53:00.185Z,100164.22
2022-12-23T08:56:08.060Z,100148.53
2022-12-23T08:59:19.081Z,100136.38
2022-12-23T09:02:22.154Z,100117.00
2022-12-23T09:05:24.845Z,100110.50
2022-12-23T09:08:27.059Z,100133.53
2022-12-23T09:11:30.144Z,100123.06
2022-12-23T09:14:32.399Z,100131.22
2022-12-23T09:17:35.365Z,100137.19
2022-12-23T09:20:38.905Z,100141.56
2022-12-23T09:23:41.588Z,100132.72
2022-12-23T09:26:43.820Z,100140.72
2022-12-23T09:29:46.242Z,100147.56
2022-12-23T09:32:48.448Z,100150.09
2022-12-23T09:35:50.944Z,100158.72
2022-12-23T09:38:58.294Z,100147.69
2022-12-23T09:42:26.541Z,100140.81
2022-12-23T09:45:54.328Z,100128.50
2022-12-23T09:49:06.219Z,100117.28
2022-12-23T09:52:12.013Z,100116.69
2022-12-23T09:55:15.737Z,100111.41
2022-12-23T09:58:29.312Z,100130.00
2022-12-23T10:01:40.235Z,100128.16
2022-12-23T10:05:16.398Z,100128.44
2022-12-23T10:08:44.165Z,100119.97
2022-12-23T10:11:49.703Z,100110.34
2022-12-23T10:14:55.743Z,100090.69
2022-12-23T10:18:03.920Z,100084.87
2022-12-23T10:21:11.965Z,100090.19
2022-12-23T10:24:34.091Z,100090.75
2022-12-23T10:27:41.449Z,100082.97
2022-12-23T10:31:11.083Z,100078.31
2022-12-23T10:34:22.705Z,100079.50
2022-12-23T10:37:51.800Z,100077.37
2022-12-23T10:41:09.955Z,100060.13
2022-12-23T10:44:36.602Z,100054.50
2022-12-23T10:47:52.697Z,100058.66
2022-12-23T10:51:04.395Z,100050.50
2022-12-23T10:54:26.630Z,100038.75
2022-12-23T10:57:29.582Z,100041.66
2022-12-23T11:00:31.823Z,100041.03
2022-12-23T11:03:41.447Z,100048.75
2022-12-23T11:06:48.257Z,100049.12
2022-12-23T11:10:01.061Z,100042.22
2022-12-23T11:13:03.535Z,100058.06
2022-12-23T11:16:13.395Z,100048.69
2022-12-23T11:19:16.074Z,100040.91
2022-12-23T11:22:24.416Z,100040.75
2022-12-23T11:25:46.122Z,100040.59
2022-12-23T11:28:51.321Z,100032.28
2022-12-23T11:31:54.353Z,100036.66
2022-12-23T11:34:57.099Z,100025.22
2022-12-23T11:38:01.917Z,100022.81
2022-12-23T11:41:05.244Z,100035.06
2022-12-23T11:44:22.081Z,100045.66
2022-12-23T11:47:43.800Z,100035.66
2022-12-23T11:50:58.592Z,100052.69
2022-12-23T11:54:02.925Z,100048.97
2022-12-23T11:57:17.359Z,100044.44
2022-12-23T12:00:55.295Z,100057.53
2022-12-23T12:04:03.334Z,100050.91
2022-12-23T12:07:11.673Z,100044.88
2022-12-23T12:10:21.056Z,100057.53
2022-12-23T12:13:28.497Z,100055.44
2022-12-23T12:16:31.086Z,100064.63
2022-12-23T12:19:48.176Z,100052.66
2022-12-23T12:22:57.839Z,100054.28
2022-12-23T12:26:04.754Z,100059.62
2022-12-23T12:29:23.620Z,100060.16
2022-12-23T12:32:31.744Z,100056.69
2022-12-23T12:35:58.957Z,100065.16
2022-12-23T12:39:04.166Z,100064.94
2022-12-23T12:42:36.767Z,100053.75
2022-12-23T12:45:50.502Z,100048.06
2022-12-23T12:49:19.098Z,100044.66
2022-12-23T12:52:25.257Z,100039.19
2022-12-23T12:55:36.154Z,100053.91
2022-12-23T12:58:40.752Z,100045.44
2022-12-23T13:02:15.563Z,100041.13
2022-12-23T13:05:45.949Z,100056.06
2022-12-23T13:09:00.116Z,100058.38
2022-12-23T13:12:22.511Z,100066.50
2022-12-23T13:15:53.942Z,100066.47
2022-12-23T13:19:03.375Z,100049.72
2022-12-23T13:22:11.137Z,100059.00
2022-12-23T13:25:25.540Z,100058.25
2022-12-23T13:28:47.281Z,100063.63
2022-12-23T13:32:02.186Z,100057.50
2022-12-23T13:35:32.136Z,100056.19
2022-12-23T13:38:49.124Z,100053.50
2022-12-23T13:41:58.596Z,100053.59
2022-12-23T13:45:06.752Z,100057.63
2022-12-23T13:48:18.366Z,100062.59
2022-12-23T13:51:31.822Z,100053.87
2022-12-23T13:54:43.679Z,100058.00
2022-12-23T13:57:57.099Z,100051.66
2022-12-23T14:01:08.728Z,100056.28
2022-12-23T14:04:33.084Z,100052.00
2022-12-23T14:07:35.353Z,100044.72
2022-12-23T14:10:39.120Z,100057.56
2022-12-23T14:18:12.496Z,100063.91
2022-12-23T14:21:36.114Z,100061.53
2022-12-23T14:24:57.632Z,100057.13
2022-12-23T14:28:15.238Z,100066.69
2022-12-23T14:31:31.986Z,100070.03
2022-12-23T14:34:36.128Z,100063.38
2022-12-23T14:37:38.634Z,100066.31
2022-12-23T14:40:44.070Z,100071.50
2022-12-23T14:43:46.476Z,100072.25
2022-12-23T14:46:48.717Z,100082.81
2022-12-23T14:49:51.689Z,100069.56
2022-12-23T14:53:00.588Z,100071.63
2022-12-23T14:56:15.557Z,100075.59
2022-12-23T14:59:20.700Z,100079.66
2022-12-23T15:02:35.200Z,100069.47
2022-12-23T15:05:39.443Z,100073.28
2022-12-23T15:08:43.571Z,100074.72
2022-12-23T15:11:46.148Z,100080.97
2022-12-23T15:15:01.932Z,100092.31
2022-12-23T15:18:06.611Z,100100.09
2022-12-23T15:21:13.287Z,100104.41
2022-12-23T15:24:21.308Z,100119.91
2022-12-23T15:27:29.310Z,100108.94
2022-12-23T15:30:46.170Z,100107.41
2022-12-23T15:34:06.958Z,100104.66
2022-12-23T15:37:12.761Z,100099.09
2022-12-23T15:40:35.091Z,100102.47
2022-12-23T15:43:41.821Z,100093.59
2022-12-23T15:46:44.881Z,100100.31
2022-12-23T15:49:47.139Z,100099.53
2022-12-23T15:52:50.915Z,100092.28
2022-12-23T15:55:53.115Z,100081.09
2022-12-23T15:58:56.659Z,100078.22
2022-12-23T16:01:59.053Z,100078.31
2022-12-23T16:05:06.012Z,100085.13
2022-12-23T16:08:28.680Z,100093.16
2022-12-23T16:11:54.630Z,100097.41
2022-12-23T16:14:57.996Z,100091.31
2022-12-23T16:18:19.321Z,100092.91
2022-12-23T16:21:27.721Z,100089.28
2022-12-23T16:24:30.308Z,100098.16
2022-12-23T16:27:42.594Z,100088.53
2022-12-23T16:30:49.501Z,100098.31
2022-12-23T16:33:55.662Z,100085.44
2022-12-23T16:36:58.240Z,100091.69
2022-12-23T16:40:03.149Z,100083.84
2022-12-23T16:43:05.782Z,100092.78
2022-12-23T16:46:15.472Z,100093.84
2022-12-23T16:49:21.333Z,100082.13
2022-12-23T16:52:24.075Z,100083.84
2022-12-23T16:55:26.636Z,100091.22
2022-12-23T16:58:29.665Z,100079.28
2022-12-23T17:01:33.971Z,100076.50
2022-12-23T17:04:36.167Z,100068.38
2022-12-23T17:07:45.058Z,100074.56
2022-12-23T17:10:47.676Z,100077.25
2022-12-23T17:13:50.440Z,100071.00
2022-12-23T17:16:53.000Z,100075.84
2022-12-23T17:19:57.525Z,100078.03
2022-12-23T17:23:00.377Z,100071.84
2022-12-23T17:26:02.991Z,100073.16
2022-12-23T17:29:05.779Z,100074.06
2022-12-23T17:32:17.859Z,100070.44
2022-12-23T17:35:20.923Z,100075.00
2022-12-23T17:38:23.542Z,100070.63
2022-12-23T17:41:29.303Z,100068.19
2022-12-23T17:44:31.862Z,100058.34
2022-12-23T17:47:34.044Z,100064.84
2022-12-23T17:50:37.180Z,100070.41
2022-12-23T17:53:39.532Z,100067.47
2022-12-23T17:56:42.064Z,100070.69
2022-12-23T17:59:47.697Z,100072.53
2022-12-23T18:02:51.485Z,100070.69
2022-12-23T18:06:01.205Z,100063.84
2022-12-23T18:09:04.151Z,100074.56
2022-12-23T18:12:07.639Z,100064.50
2022-12-23T18:15:19.672Z,100064.09
2022-12-23T18:18:32.079Z,100055.72
2022-12-23T18:21:38.253Z,100053.63
2022-12-23T18:24:40.819Z,100050.78
2022-12-23T18:27:43.148Z,100058.06
2022-12-23T18:30:45.638Z,100051.97
2022-12-23T18:33:48.567Z,100060.16
2022-12-23T18:36:51.950Z,100058.06
2022-12-23T18:39:54.632Z,100065.84
2022-12-23T18:42:57.448Z,100066.78
2022-12-23T18:45:59.770Z,100063.59
2022-12-23T18:49:02.341Z,100066.91
2022-12-23T18:52:12.421Z,100074.56
2022-12-23T18:55:15.069Z,100075.03
2022-12-23T18:58:20.747Z,100069.59
2022-12-23T19:01:23.333Z,100072.31
2022-12-23T19:04:28.760Z,100078.63
2022-12-23T19:07:31.302Z,100078.56
2022-12-23T19:10:34.027Z,100069.91
2022-12-23T19:13:36.576Z,100092.59
2022-12-23T19:16:39.162Z,100085.50
2022-12-23T19:19:41.748Z,100085.50
2022-12-23T19:22:44.329Z,100077.22
2022-12-23T19:25:54.483Z,100077.63
2022-12-23T19:28:57.281Z,100091.59
2022-12-23T19:31:59.834Z,100108.91
2022-12-23T19:35:02.136Z,100102.81
2022-12-23T19:38:04.648Z,100096.03
2022-12-23T19:41:07.733Z,100100.94
2022-12-23T19:44:10.282Z,100103.84
2022-12-23T19:47:12.499Z,100102.94
2022-12-23T19:50:15.017Z,100107.12
2022-12-23T19:53:17.396Z,100100.72
2022-12-23T19:56:23.410Z,100107.31
2022-12-23T19:59:25.673Z,100116.06
2022-12-23T20:02:28.663Z,100108.00
2022-12-23T20:05:31.298Z,100113.91
2022-12-23T20:08:34.708Z,100122.16
2022-12-23T20:11:38.706Z,100127.41
2022-12-23T20:14:40.825Z,100127.19
2022-12-23T20:17:43.301Z,100132.28
2022-12-23T20:20:45.492Z,100123.16
2022-12-23T20:23:48.359Z,100113.84
2022-12-23T20:26:50.737Z,100113.38
2022-12-23T20:29:53.256Z,100115.91
2022-12-23T20:32:55.590Z,100098.25
2022-12-23T20:35:58.426Z,100097.16
2022-12-23T20:39:03.266Z,100088.75
2022-12-23T20:42:05.916Z,100083.91
2022-12-23T20:45:08.476Z,100086.12
2022-12-23T20:48:10.934Z,100075.28
2022-12-23T20:51:20.723Z,100070.03
2022-12-23T20:54:29.752Z,100070.87
2022-12-23T20:57:35.838Z,100064.94
2022-12-23T21:00:38.228Z,100066.09
2022-12-23T21:03:41.102Z,100072.19
2022-12-23T21:06:44.424Z,100070.66
2022-12-23T21:09:46.605Z,100071.34
2022-12-23T21:12:49.149Z,100067.41
2022-12-23T21:15:51.381Z,100065.31
2022-12-23T21:18:54.091Z,100066.41
2022-12-23T21:21:56.805Z,100073.44
2022-12-23T21:24:59.292Z,100078.59
2022-12-23T21:28:01.536Z,100072.78
2022-12-23T21:31:04.403Z,100054.50
2022-12-23T21:34:07.347Z,100049.50
2022-12-23T21:37:09.874Z,100049.34
2022-12-23T21:40:12.515Z,100047.97
2022-12-23T21:43:15.051Z,100042.56
2022-12-23T21:46:20.697Z,100049.69
2022-12-23T21:49:23.743Z,100041.47
2022-12-23T21:52:25.932Z,100043.84
2022-12-23T21:55:28.408Z,100029.91
2022-12-23T21:58:31.454Z,100024.50
2022-12-23T22:01:34.683Z,100025.16
2022-12-23T22:04:39.298Z,100024.72
2022-12-23T22:07:41.467Z,100024.50
2022-12-23T22:10:45.575Z,100022.78
2022-12-23T22:13:48.292Z,100006.56
2022-12-23T22:16:50.857Z,100002.06
2022-12-23T22:19:53.000Z,99986.66
2022-12-23T22:22:55.715Z,99978.13
2022-12-23T22:25:57.934Z,99961.81
2022-12-23T22:29:04.118Z,99952.16
2022-12-23T22:32:06.409Z,99946.41
2022-12-23T22:35:09.129Z,99953.75
2022-12-23T22:38:11.352Z,99948.34
2022-12-23T22:41:16.080Z,99958.25
2022-12-23T22:44:19.349Z,99948.84
2022-12-23T22:47:21.847Z,99949.78
2022-12-23T22:50:23.946Z,99948.94
2022-12-23T22:53:29.911Z,99949.94
2022-12-23T22:56:32.385Z,99946.47
2022-12-23T22:59:34.926Z,99946.22
2022-12-23T23:02:37.336Z,99942.16
2022-12-23T23:05:39.963Z,99929.97
2022-12-23T23:08:42.557Z,99933.09
2022-12-23T23:11:45.627Z,99934.19
2022-12-23T23:14:53.723Z,99947.50
2022-12-23T23:17:56.496Z,99941.91
2022-12-23T23:20:59.643Z,99944.44
2022-12-23T23:24:02.373Z,99940.22
2022-12-23T23:27:04.906Z,99946.72
2022-12-23T23:30:08.121Z,99931.50
2022-12-23T23:33:10.595Z,99945.38
2022-12-23T23:36:13.366Z,99955.97
2022-12-23T23:39:15.578Z,99949.03
2022-12-23T23:42:18.391Z,99951.12
2022-12-23T23:45:20.971Z,99949.69
2022-12-23T23:48:23.538Z,99941.16
2022-12-23T23:51:26.209Z,99921.53
2022-12-23T23:54:28.735Z,99919.81
2022-12-23T23:57:30.974Z,99915.09
